Saint-Sauveur, France

12:23 AM CEST on July 24, 2016 (GMT +0200)
Ile d'yeu port-joinville | | Change Station

Elev 52 ft 46.72 °N, 2.35 °W | Updated 10 minutes ago

Clear
Clear
65.1 °F
Feels Like 65.1 °F
N
3.0
Wind Variable Wind from NW
Gusts 11.0 mph

Today
High -- | Low -- °F
--% Chance of Precip.
Yesterday
High -- | Low -- °F
Precip. -- in
Pressure 30.18 in
Visibility -9999.0 miles
Clouds
Dew Point 59 °F
Humidity 81%
Rainfall 0.00 in
Snow Depth Not available.
6:40 AM 9:50 PM
Waning Gibbous, 82% visible
METAR LFRZ 232200Z AUTO 25005KT CAVOK 16/14 Q1022 NOSIG
Pressure 30.18 in
Visibility -9999.0 miles
Clouds
Dew Point 59 °F
Humidity 81%
Rainfall 0.00 in
Snow Depth Not available.
6:40 AM 9:50 PM
Waning Gibbous, 82% visible
METAR LFRZ 232200Z AUTO 25005KT CAVOK 16/14 Q1022 NOSIG

10-Day Weather Forecast

×

Almanac

Astronomy

Jul. 24, 2016 Rise Set
Actual Time
Civil Twilight
Nautical Twilight
Astronomical Twilight
Moon
Length of Visible Light
Length of Day
Tomorrow will be .
, % of the Moon is Illuminated

Today's Extremes

Country Highs Country Lows

Community

WunderPhotos

Upload Photos

1,926,948 photos uploaded!

WunderBlog® & News

Nearby

Air Quality

  Air Quality AQ Index Pollutant
Not available.

Snow Depth

Station Depth Elevation

Earthquake Activity

City Distance Mag. Time & Date
Minimum magnitude displayed is 2.5.

Coastal Water Temperatures

Place Temperature

Stations

Nearby Weather Stations

Station Location Temp. Windchill Dew Point Humidity Wind Precip. Elev Updated Type